Airport View

Enter ICAO identifier to see the current METAR for that AWOS.

KFNL for example

KBLV 011303Z AUTO VRB04KT 10SM BKN021 BKN046 24/24 A2991 RMK AO2 CIG 021V046

1 Sep 2014 13:37

Other Area AWOS: KCPS - KALN - KSAR - KSTL

TAF KBLV 0108/0214 VRB06KT 9999 FEW030 BKN050 OVC090 QNH2986INS BECMG 0114/0115 20012G18KT 9999 BKN045 QNH2984INS BECMG 0117/0118 20012G18KT 8000 -SHRA BKN045 QNH2981INS BECMG 0120/0121 23020G30KT 4800 -TSRA OVC040CB QNH2979INS BECMG 0206/0207 21009KT 9999 NSW SCT050 OVC100 QNH2984INS BECMG 0212/0213 21009KT 8000 -SHRA BKN050 OVC080 QNH2985INS TX31/0121Z TN21/0210Z